sensor_id;sensor_type;location;lat;lon;timestamp;P1;durP1;ratioP1;P2;durP2;ratioP2
45206;SDS011;30950;53.086;21.576;2023-03-15T00:01:10;14.60;;;9.57;;
45206;SDS011;30950;53.086;21.576;2023-03-15T00:03:42;13.70;;;9.40;;
45206;SDS011;30950;53.086;21.576;2023-03-15T00:06:11;17.25;;;11.43;;
45206;SDS011;30950;53.086;21.576;2023-03-15T00:08:38;16.20;;;10.70;;
45206;SDS011;30950;53.086;21.576;2023-03-15T00:11:06;16.85;;;11.40;;
45206;SDS011;30950;53.086;21.576;2023-03-15T00:13:33;15.38;;;11.48;;
45206;SDS011;30950;53.086;21.576;2023-03-15T00:16:01;17.33;;;11.38;;
45206;SDS011;30950;53.086;21.576;2023-03-15T00:18:29;14.27;;;11.13;;
45206;SDS011;30950;53.086;21.576;2023-03-15T00:20:57;20.55;;;12.07;;
45206;SDS011;30950;53.086;21.576;2023-03-15T00:23:25;16.60;;;11.95;;
45206;SDS011;30950;53.086;21.576;2023-03-15T00:25:52;16.88;;;11.93;;
45206;SDS011;30950;53.086;21.576;2023-03-15T00:28:20;15.40;;;11.00;;
45206;SDS011;30950;53.086;21.576;2023-03-15T00:31:01;18.10;;;12.20;;
45206;SDS011;30950;53.086;21.576;2023-03-15T00:33:29;16.77;;;11.00;;
45206;SDS011;30950;53.086;21.576;2023-03-15T00:36:01;17.90;;;11.52;;
45206;SDS011;30950;53.086;21.576;2023-03-15T00:38:31;18.95;;;12.43;;
45206;SDS011;30950;53.086;21.576;2023-03-15T00:41:12;17.65;;;11.45;;
45206;SDS011;30950;53.086;21.576;2023-03-15T00:43:41;16.75;;;11.23;;
45206;SDS011;30950;53.086;21.576;2023-03-15T00:46:09;18.48;;;11.43;;
45206;SDS011;30950;53.086;21.576;2023-03-15T00:48:37;19.70;;;11.90;;
45206;SDS011;30950;53.086;21.576;2023-03-15T00:53:43;8.98;;;5.88;;
45206;SDS011;30950;53.086;21.576;2023-03-15T00:56:19;2.88;;;2.10;;
45206;SDS011;30950;53.086;21.576;2023-03-15T00:58:48;2.83;;;1.90;;
45206;SDS011;30950;53.086;21.576;2023-03-15T01:01:21;2.65;;;1.50;;
45206;SDS011;30950;53.086;21.576;2023-03-15T01:03:50;1.77;;;1.00;;
45206;SDS011;30950;53.086;21.576;2023-03-15T01:06:22;1.73;;;1.10;;
45206;SDS011;30950;53.086;21.576;2023-03-15T01:08:50;1.85;;;1.23;;
45206;SDS011;30950;53.086;21.576;2023-03-15T01:11:23;3.25;;;1.17;;
45206;SDS011;30950;53.086;21.576;2023-03-15T01:13:52;1.30;;;1.15;;
45206;SDS011;30950;53.086;21.576;2023-03-15T01:16:21;1.08;;;0.90;;
45206;SDS011;30950;53.086;21.576;2023-03-15T01:18:49;2.92;;;1.55;;
45206;SDS011;30950;53.086;21.576;2023-03-15T01:21:20;3.92;;;1.30;;
45206;SDS011;30950;53.086;21.576;2023-03-15T01:23:49;1.20;;;0.95;;
45206;SDS011;30950;53.086;21.576;2023-03-15T01:26:20;2.15;;;0.95;;
45206;SDS011;30950;53.086;21.576;2023-03-15T01:28:48;2.08;;;1.40;;
45206;SDS011;30950;53.086;21.576;2023-03-15T01:31:25;4.22;;;1.33;;
45206;SDS011;30950;53.086;21.576;2023-03-15T01:33:55;1.75;;;1.00;;
45206;SDS011;30950;53.086;21.576;2023-03-15T01:36:23;2.55;;;1.00;;
45206;SDS011;30950;53.086;21.576;2023-03-15T01:38:50;2.38;;;1.27;;
45206;SDS011;30950;53.086;21.576;2023-03-15T01:41:25;3.00;;;1.20;;
45206;SDS011;30950;53.086;21.576;2023-03-15T01:43:53;2.08;;;1.20;;
45206;SDS011;30950;53.086;21.576;2023-03-15T01:46:27;3.15;;;1.30;;
45206;SDS011;30950;53.086;21.576;2023-03-15T01:49:29;3.25;;;1.40;;
45206;SDS011;30950;53.086;21.576;2023-03-15T01:52:08;2.58;;;1.65;;
45206;SDS011;30950;53.086;21.576;2023-03-15T01:55:08;3.90;;;1.38;;
45206;SDS011;30950;53.086;21.576;2023-03-15T01:57:53;2.58;;;1.05;;
45206;SDS011;30950;53.086;21.576;2023-03-15T02:00:26;3.20;;;1.30;;
45206;SDS011;30950;53.086;21.576;2023-03-15T02:06:03;5.10;;;2.50;;
45206;SDS011;30950;53.086;21.576;2023-03-15T02:08:56;4.05;;;1.70;;
45206;SDS011;30950;53.086;21.576;2023-03-15T02:11:31;5.03;;;2.00;;
45206;SDS011;30950;53.086;21.576;2023-03-15T02:14:01;3.80;;;1.55;;
45206;SDS011;30950;53.086;21.576;2023-03-15T02:16:32;4.38;;;1.33;;
45206;SDS011;30950;53.086;21.576;2023-03-15T02:19:05;5.57;;;1.63;;
45206;SDS011;30950;53.086;21.576;2023-03-15T02:21:58;2.35;;;1.33;;
45206;SDS011;30950;53.086;21.576;2023-03-15T02:24:44;5.10;;;1.67;;
45206;SDS011;30950;53.086;21.576;2023-03-15T02:27:19;2.88;;;1.40;;
45206;SDS011;30950;53.086;21.576;2023-03-15T02:29:53;4.55;;;1.70;;
45206;SDS011;30950;53.086;21.576;2023-03-15T02:32:21;8.07;;;1.70;;
45206;SDS011;30950;53.086;21.576;2023-03-15T02:34:48;6.25;;;2.33;;
45206;SDS011;30950;53.086;21.576;2023-03-15T02:37:16;4.90;;;1.58;;
45206;SDS011;30950;53.086;21.576;2023-03-15T02:39:45;8.18;;;2.65;;
45206;SDS011;30950;53.086;21.576;2023-03-15T02:42:12;2.95;;;1.48;;
45206;SDS011;30950;53.086;21.576;2023-03-15T02:44:41;3.85;;;1.42;;
45206;SDS011;30950;53.086;21.576;2023-03-15T02:49:43;6.80;;;2.63;;
45206;SDS011;30950;53.086;21.576;2023-03-15T02:52:13;4.72;;;1.90;;
45206;SDS011;30950;53.086;21.576;2023-03-15T02:54:41;2.95;;;2.30;;
45206;SDS011;30950;53.086;21.576;2023-03-15T02:57:10;7.18;;;2.83;;
45206;SDS011;30950;53.086;21.576;2023-03-15T02:59:42;4.82;;;1.90;;
45206;SDS011;30950;53.086;21.576;2023-03-15T03:02:11;4.60;;;1.60;;
45206;SDS011;30950;53.086;21.576;2023-03-15T03:04:41;6.72;;;2.25;;
45206;SDS011;30950;53.086;21.576;2023-03-15T03:07:08;5.32;;;1.50;;
45206;SDS011;30950;53.086;21.576;2023-03-15T03:09:58;4.85;;;1.73;;
45206;SDS011;30950;53.086;21.576;2023-03-15T03:12:26;5.45;;;1.80;;
45206;SDS011;30950;53.086;21.576;2023-03-15T03:14:54;9.65;;;1.58;;
45206;SDS011;30950;53.086;21.576;2023-03-15T03:17:22;3.72;;;1.70;;
45206;SDS011;30950;53.086;21.576;2023-03-15T03:19:50;3.78;;;1.52;;
45206;SDS011;30950;53.086;21.576;2023-03-15T03:22:23;5.55;;;2.47;;
45206;SDS011;30950;53.086;21.576;2023-03-15T03:24:51;5.97;;;2.33;;
45206;SDS011;30950;53.086;21.576;2023-03-15T03:27:18;8.13;;;1.98;;
45206;SDS011;30950;53.086;21.576;2023-03-15T03:29:46;7.38;;;1.83;;
45206;SDS011;30950;53.086;21.576;2023-03-15T03:32:14;1.85;;;1.42;;
45206;SDS011;30950;53.086;21.576;2023-03-15T03:34:42;3.97;;;2.00;;
45206;SDS011;30950;53.086;21.576;2023-03-15T03:37:18;6.07;;;2.25;;
45206;SDS011;30950;53.086;21.576;2023-03-15T03:39:59;10.00;;;2.10;;
45206;SDS011;30950;53.086;21.576;2023-03-15T03:42:27;4.93;;;1.95;;
45206;SDS011;30950;53.086;21.576;2023-03-15T03:44:55;6.82;;;2.55;;
45206;SDS011;30950;53.086;21.576;2023-03-15T03:47:27;6.88;;;2.20;;
45206;SDS011;30950;53.086;21.576;2023-03-15T03:49:55;5.65;;;2.30;;
45206;SDS011;30950;53.086;21.576;2023-03-15T03:52:22;6.85;;;2.20;;
45206;SDS011;30950;53.086;21.576;2023-03-15T03:54:53;4.57;;;1.77;;
45206;SDS011;30950;53.086;21.576;2023-03-15T03:57:20;6.38;;;2.20;;
45206;SDS011;30950;53.086;21.576;2023-03-15T03:59:48;6.03;;;2.45;;
45206;SDS011;30950;53.086;21.576;2023-03-15T04:02:15;4.43;;;2.40;;
45206;SDS011;30950;53.086;21.576;2023-03-15T04:04:50;6.78;;;2.13;;
45206;SDS011;30950;53.086;21.576;2023-03-15T04:07:20;9.55;;;2.50;;
45206;SDS011;30950;53.086;21.576;2023-03-15T04:09:49;8.75;;;2.30;;
45206;SDS011;30950;53.086;21.576;2023-03-15T04:12:17;4.78;;;2.30;;
45206;SDS011;30950;53.086;21.576;2023-03-15T04:14:45;8.30;;;2.60;;
45206;SDS011;30950;53.086;21.576;2023-03-15T04:17:13;6.05;;;2.70;;
45206;SDS011;30950;53.086;21.576;2023-03-15T04:19:41;7.47;;;2.78;;
45206;SDS011;30950;53.086;21.576;2023-03-15T04:22:15;4.68;;;2.67;;
45206;SDS011;30950;53.086;21.576;2023-03-15T04:25:09;7.57;;;2.90;;
45206;SDS011;30950;53.086;21.576;2023-03-15T04:27:48;5.18;;;2.65;;
45206;SDS011;30950;53.086;21.576;2023-03-15T04:30:53;7.43;;;2.78;;
45206;SDS011;30950;53.086;21.576;2023-03-15T04:33:44;8.68;;;3.40;;
45206;SDS011;30950;53.086;21.576;2023-03-15T04:36:47;7.15;;;3.10;;
45206;SDS011;30950;53.086;21.576;2023-03-15T04:39:37;10.25;;;3.80;;
45206;SDS011;30950;53.086;21.576;2023-03-15T04:42:39;7.28;;;2.83;;
45206;SDS011;30950;53.086;21.576;2023-03-15T04:45:15;6.60;;;2.90;;
45206;SDS011;30950;53.086;21.576;2023-03-15T04:48:15;7.40;;;2.75;;
45206;SDS011;30950;53.086;21.576;2023-03-15T04:51:02;8.48;;;3.38;;
45206;SDS011;30950;53.086;21.576;2023-03-15T04:53:38;6.38;;;2.70;;
45206;SDS011;30950;53.086;21.576;2023-03-15T04:56:32;8.90;;;3.10;;
45206;SDS011;30950;53.086;21.576;2023-03-15T04:59:17;8.63;;;2.88;;
45206;SDS011;30950;53.086;21.576;2023-03-15T05:01:45;4.10;;;2.72;;
45206;SDS011;30950;53.086;21.576;2023-03-15T05:04:21;7.43;;;3.20;;
45206;SDS011;30950;53.086;21.576;2023-03-15T05:09:51;9.13;;;4.03;;
45206;SDS011;30950;53.086;21.576;2023-03-15T05:12:57;8.63;;;3.22;;
45206;SDS011;30950;53.086;21.576;2023-03-15T05:15:42;10.23;;;4.55;;
45206;SDS011;30950;53.086;21.576;2023-03-15T05:18:22;12.23;;;4.38;;
45206;SDS011;30950;53.086;21.576;2023-03-15T05:21:06;6.82;;;3.45;;
45206;SDS011;30950;53.086;21.576;2023-03-15T05:23:48;11.43;;;3.65;;
45206;SDS011;30950;53.086;21.576;2023-03-15T05:26:30;8.52;;;3.20;;
45206;SDS011;30950;53.086;21.576;2023-03-15T05:29:13;10.82;;;3.55;;
45206;SDS011;30950;53.086;21.576;2023-03-15T05:31:52;7.82;;;3.58;;
45206;SDS011;30950;53.086;21.576;2023-03-15T05:34:43;8.40;;;3.60;;
45206;SDS011;30950;53.086;21.576;2023-03-15T05:37:30;11.07;;;3.45;;
45206;SDS011;30950;53.086;21.576;2023-03-15T05:40:13;11.30;;;3.70;;
45206;SDS011;30950;53.086;21.576;2023-03-15T05:43:01;11.25;;;3.28;;
45206;SDS011;30950;53.086;21.576;2023-03-15T05:45:47;11.57;;;3.58;;
45206;SDS011;30950;53.086;21.576;2023-03-15T05:48:33;13.03;;;3.03;;
45206;SDS011;30950;53.086;21.576;2023-03-15T05:51:24;7.40;;;3.28;;
45206;SDS011;30950;53.086;21.576;2023-03-15T05:54:09;11.02;;;3.88;;
45206;SDS011;30950;53.086;21.576;2023-03-15T05:56:45;8.13;;;3.20;;
45206;SDS011;30950;53.086;21.576;2023-03-15T05:59:42;8.10;;;4.20;;
45206;SDS011;30950;53.086;21.576;2023-03-15T06:02:30;11.80;;;3.88;;
45206;SDS011;30950;53.086;21.576;2023-03-15T06:05:13;9.02;;;4.47;;
45206;SDS011;30950;53.086;21.576;2023-03-15T06:07:41;6.55;;;3.45;;
45206;SDS011;30950;53.086;21.576;2023-03-15T06:10:09;11.88;;;3.70;;
45206;SDS011;30950;53.086;21.576;2023-03-15T06:12:36;16.40;;;3.97;;
45206;SDS011;30950;53.086;21.576;2023-03-15T06:15:04;9.35;;;3.67;;
45206;SDS011;30950;53.086;21.576;2023-03-15T06:17:32;9.27;;;4.43;;
45206;SDS011;30950;53.086;21.576;2023-03-15T06:20:00;8.80;;;3.67;;
45206;SDS011;30950;53.086;21.576;2023-03-15T06:22:28;9.52;;;3.78;;
45206;SDS011;30950;53.086;21.576;2023-03-15T06:25:00;6.88;;;3.42;;
45206;SDS011;30950;53.086;21.576;2023-03-15T06:27:29;8.00;;;3.70;;
45206;SDS011;30950;53.086;21.576;2023-03-15T06:29:57;8.95;;;3.47;;
45206;SDS011;30950;53.086;21.576;2023-03-15T06:32:25;13.70;;;3.72;;
45206;SDS011;30950;53.086;21.576;2023-03-15T06:34:52;7.70;;;4.25;;
45206;SDS011;30950;53.086;21.576;2023-03-15T06:37:20;10.98;;;3.45;;
45206;SDS011;30950;53.086;21.576;2023-03-15T06:40:02;15.50;;;3.92;;
45206;SDS011;30950;53.086;21.576;2023-03-15T06:42:33;8.98;;;6.50;;
45206;SDS011;30950;53.086;21.576;2023-03-15T06:45:01;10.88;;;4.65;;
45206;SDS011;30950;53.086;21.576;2023-03-15T06:47:29;7.78;;;3.13;;
45206;SDS011;30950;53.086;21.576;2023-03-15T06:49:56;8.70;;;3.22;;
45206;SDS011;30950;53.086;21.576;2023-03-15T06:52:23;13.25;;;3.72;;
45206;SDS011;30950;53.086;21.576;2023-03-15T06:54:51;12.13;;;4.85;;
45206;SDS011;30950;53.086;21.576;2023-03-15T06:57:18;9.10;;;4.75;;
45206;SDS011;30950;53.086;21.576;2023-03-15T06:59:46;12.57;;;5.07;;
45206;SDS011;30950;53.086;21.576;2023-03-15T07:02:14;10.07;;;4.68;;
45206;SDS011;30950;53.086;21.576;2023-03-15T07:04:46;10.13;;;3.72;;
45206;SDS011;30950;53.086;21.576;2023-03-15T07:07:14;15.55;;;3.80;;
45206;SDS011;30950;53.086;21.576;2023-03-15T07:09:42;9.65;;;3.00;;
45206;SDS011;30950;53.086;21.576;2023-03-15T07:12:09;7.25;;;2.67;;
45206;SDS011;30950;53.086;21.576;2023-03-15T07:14:37;12.82;;;4.20;;
45206;SDS011;30950;53.086;21.576;2023-03-15T07:17:04;7.22;;;3.08;;
45206;SDS011;30950;53.086;21.576;2023-03-15T07:19:32;8.43;;;2.90;;
45206;SDS011;30950;53.086;21.576;2023-03-15T07:22:02;6.13;;;2.58;;
45206;SDS011;30950;53.086;21.576;2023-03-15T07:24:30;8.60;;;2.78;;
45206;SDS011;30950;53.086;21.576;2023-03-15T07:26:57;8.38;;;3.15;;
45206;SDS011;30950;53.086;21.576;2023-03-15T07:29:24;7.88;;;2.60;;
45206;SDS011;30950;53.086;21.576;2023-03-15T07:31:52;8.57;;;3.33;;
45206;SDS011;30950;53.086;21.576;2023-03-15T07:34:20;12.10;;;3.58;;
45206;SDS011;30950;53.086;21.576;2023-03-15T07:36:47;10.25;;;3.40;;
45206;SDS011;30950;53.086;21.576;2023-03-15T07:39:14;11.27;;;4.05;;
45206;SDS011;30950;53.086;21.576;2023-03-15T07:41:42;8.10;;;4.03;;
45206;SDS011;30950;53.086;21.576;2023-03-15T07:44:20;13.77;;;3.22;;
45206;SDS011;30950;53.086;21.576;2023-03-15T07:46:47;8.95;;;3.30;;
45206;SDS011;30950;53.086;21.576;2023-03-15T07:49:15;9.70;;;3.13;;
45206;SDS011;30950;53.086;21.576;2023-03-15T07:51:42;10.27;;;2.70;;
45206;SDS011;30950;53.086;21.576;2023-03-15T07:54:10;8.27;;;2.70;;
45206;SDS011;30950;53.086;21.576;2023-03-15T07:56:37;9.20;;;2.70;;
45206;SDS011;30950;53.086;21.576;2023-03-15T07:59:05;8.18;;;2.90;;
45206;SDS011;30950;53.086;21.576;2023-03-15T08:01:32;11.95;;;3.45;;
45206;SDS011;30950;53.086;21.576;2023-03-15T08:03:59;8.45;;;3.97;;
45206;SDS011;30950;53.086;21.576;2023-03-15T08:06:26;10.90;;;3.30;;
45206;SDS011;30950;53.086;21.576;2023-03-15T08:08:54;8.43;;;2.90;;
45206;SDS011;30950;53.086;21.576;2023-03-15T08:11:21;5.95;;;2.85;;
45206;SDS011;30950;53.086;21.576;2023-03-15T08:13:48;7.28;;;2.60;;
45206;SDS011;30950;53.086;21.576;2023-03-15T08:20:02;12.10;;;3.42;;
45206;SDS011;30950;53.086;21.576;2023-03-15T08:22:31;10.88;;;4.65;;
45206;SDS011;30950;53.086;21.576;2023-03-15T08:24:58;13.65;;;3.53;;
45206;SDS011;30950;53.086;21.576;2023-03-15T08:27:26;11.45;;;3.42;;
45206;SDS011;30950;53.086;21.576;2023-03-15T08:29:53;9.45;;;2.85;;
45206;SDS011;30950;53.086;21.576;2023-03-15T08:32:21;7.15;;;2.35;;
45206;SDS011;30950;53.086;21.576;2023-03-15T08:34:48;13.13;;;3.33;;
45206;SDS011;30950;53.086;21.576;2023-03-15T08:37:15;8.20;;;2.75;;
45206;SDS011;30950;53.086;21.576;2023-03-15T08:39:43;6.22;;;2.33;;
45206;SDS011;30950;53.086;21.576;2023-03-15T08:42:10;10.70;;;2.25;;
45206;SDS011;30950;53.086;21.576;2023-03-15T08:44:37;10.57;;;2.65;;
45206;SDS011;30950;53.086;21.576;2023-03-15T08:47:05;7.45;;;2.25;;
45206;SDS011;30950;53.086;21.576;2023-03-15T08:49:32;13.05;;;2.72;;
45206;SDS011;30950;53.086;21.576;2023-03-15T08:51:59;13.55;;;3.15;;
45206;SDS011;30950;53.086;21.576;2023-03-15T08:54:27;9.77;;;2.50;;
45206;SDS011;30950;53.086;21.576;2023-03-15T08:56:54;7.57;;;3.00;;
45206;SDS011;30950;53.086;21.576;2023-03-15T08:59:21;11.55;;;2.92;;
45206;SDS011;30950;53.086;21.576;2023-03-15T09:02:00;12.98;;;3.63;;
45206;SDS011;30950;53.086;21.576;2023-03-15T09:04:28;11.07;;;2.40;;
45206;SDS011;30950;53.086;21.576;2023-03-15T09:06:56;10.48;;;3.13;;
45206;SDS011;30950;53.086;21.576;2023-03-15T09:09:24;8.07;;;2.30;;
45206;SDS011;30950;53.086;21.576;2023-03-15T09:11:51;10.35;;;2.75;;
45206;SDS011;30950;53.086;21.576;2023-03-15T09:14:18;5.53;;;2.45;;
45206;SDS011;30950;53.086;21.576;2023-03-15T09:16:46;9.15;;;2.97;;
45206;SDS011;30950;53.086;21.576;2023-03-15T09:19:14;8.38;;;2.90;;
45206;SDS011;30950;53.086;21.576;2023-03-15T09:21:41;9.05;;;2.70;;
45206;SDS011;30950;53.086;21.576;2023-03-15T09:24:10;10.77;;;2.63;;
45206;SDS011;30950;53.086;21.576;2023-03-15T09:26:38;9.93;;;3.08;;
45206;SDS011;30950;53.086;21.576;2023-03-15T09:29:05;8.48;;;3.30;;
45206;SDS011;30950;53.086;21.576;2023-03-15T09:31:35;9.65;;;3.33;;
45206;SDS011;30950;53.086;21.576;2023-03-15T09:34:02;9.32;;;3.20;;
45206;SDS011;30950;53.086;21.576;2023-03-15T09:36:31;12.18;;;3.38;;
45206;SDS011;30950;53.086;21.576;2023-03-15T09:38:59;8.80;;;2.60;;
45206;SDS011;30950;53.086;21.576;2023-03-15T09:50:08;10.10;;;2.88;;
45206;SDS011;30950;53.086;21.576;2023-03-15T09:52:47;9.60;;;3.53;;
45206;SDS011;30950;53.086;21.576;2023-03-15T09:55:21;8.80;;;2.60;;
45206;SDS011;30950;53.086;21.576;2023-03-15T10:00:52;7.28;;;2.35;;
45206;SDS011;30950;53.086;21.576;2023-03-15T10:03:55;11.85;;;3.83;;
45206;SDS011;30950;53.086;21.576;2023-03-15T10:06:25;7.07;;;2.90;;
45206;SDS011;30950;53.086;21.576;2023-03-15T10:08:56;7.38;;;2.40;;
45206;SDS011;30950;53.086;21.576;2023-03-15T10:16:54;9.57;;;2.50;;
45206;SDS011;30950;53.086;21.576;2023-03-15T10:19:36;13.05;;;3.47;;
45206;SDS011;30950;53.086;21.576;2023-03-15T10:29:47;6.45;;;2.58;;
45206;SDS011;30950;53.086;21.576;2023-03-15T10:32:18;13.63;;;3.38;;
45206;SDS011;30950;53.086;21.576;2023-03-15T10:34:52;10.15;;;2.83;;
45206;SDS011;30950;53.086;21.576;2023-03-15T10:37:23;9.60;;;3.30;;
45206;SDS011;30950;53.086;21.576;2023-03-15T10:39:55;8.10;;;3.25;;
45206;SDS011;30950;53.086;21.576;2023-03-15T10:42:28;9.70;;;2.85;;
45206;SDS011;30950;53.086;21.576;2023-03-15T10:44:58;15.18;;;3.33;;
45206;SDS011;30950;53.086;21.576;2023-03-15T10:47:40;6.05;;;2.50;;
45206;SDS011;30950;53.086;21.576;2023-03-15T10:50:31;15.68;;;8.73;;
45206;SDS011;30950;53.086;21.576;2023-03-15T10:53:00;11.68;;;3.25;;
45206;SDS011;30950;53.086;21.576;2023-03-15T10:55:35;9.82;;;2.80;;
45206;SDS011;30950;53.086;21.576;2023-03-15T11:00:57;10.82;;;2.72;;
45206;SDS011;30950;53.086;21.576;2023-03-15T11:03:33;12.40;;;2.95;;
45206;SDS011;30950;53.086;21.576;2023-03-15T11:06:02;7.47;;;2.92;;
45206;SDS011;30950;53.086;21.576;2023-03-15T11:08:45;9.38;;;2.70;;
45206;SDS011;30950;53.086;21.576;2023-03-15T11:11:12;9.77;;;3.03;;
45206;SDS011;30950;53.086;21.576;2023-03-15T11:13:40;8.77;;;2.47;;
45206;SDS011;30950;53.086;21.576;2023-03-15T11:21:15;9.82;;;3.78;;
45206;SDS011;30950;53.086;21.576;2023-03-15T11:23:45;8.23;;;2.50;;
45206;SDS011;30950;53.086;21.576;2023-03-15T11:26:16;5.55;;;2.40;;
45206;SDS011;30950;53.086;21.576;2023-03-15T11:29:00;5.72;;;2.22;;
45206;SDS011;30950;53.086;21.576;2023-03-15T11:31:32;7.68;;;2.50;;
45206;SDS011;30950;53.086;21.576;2023-03-15T11:36:46;9.48;;;3.42;;
45206;SDS011;30950;53.086;21.576;2023-03-15T11:42:23;10.80;;;2.70;;
45206;SDS011;30950;53.086;21.576;2023-03-15T11:44:56;8.48;;;3.15;;
45206;SDS011;30950;53.086;21.576;2023-03-15T11:47:36;6.65;;;2.90;;
45206;SDS011;30950;53.086;21.576;2023-03-15T11:50:10;8.32;;;2.83;;
45206;SDS011;30950;53.086;21.576;2023-03-15T11:52:39;9.38;;;2.80;;
45206;SDS011;30950;53.086;21.576;2023-03-15T11:55:14;7.82;;;2.70;;
45206;SDS011;30950;53.086;21.576;2023-03-15T11:57:44;7.28;;;2.95;;
45206;SDS011;30950;53.086;21.576;2023-03-15T12:05:41;8.02;;;2.40;;
45206;SDS011;30950;53.086;21.576;2023-03-15T12:11:08;8.15;;;3.10;;
45206;SDS011;30950;53.086;21.576;2023-03-15T12:16:31;10.65;;;3.22;;
45206;SDS011;30950;53.086;21.576;2023-03-15T12:19:13;10.68;;;4.10;;
45206;SDS011;30950;53.086;21.576;2023-03-15T12:21:49;9.52;;;3.03;;
45206;SDS011;30950;53.086;21.576;2023-03-15T12:24:24;7.30;;;3.00;;
45206;SDS011;30950;53.086;21.576;2023-03-15T12:29:39;10.73;;;3.17;;
45206;SDS011;30950;53.086;21.576;2023-03-15T12:32:12;14.70;;;6.00;;
45206;SDS011;30950;53.086;21.576;2023-03-15T12:37:39;11.57;;;4.15;;
45206;SDS011;30950;53.086;21.576;2023-03-15T12:47:46;11.25;;;2.90;;
45206;SDS011;30950;53.086;21.576;2023-03-15T12:55:52;9.80;;;3.40;;
45206;SDS011;30950;53.086;21.576;2023-03-15T12:58:34;9.18;;;3.80;;
45206;SDS011;30950;53.086;21.576;2023-03-15T13:01:03;9.02;;;3.20;;
45206;SDS011;30950;53.086;21.576;2023-03-15T13:03:33;8.20;;;3.38;;
45206;SDS011;30950;53.086;21.576;2023-03-15T13:06:07;10.82;;;3.33;;
45206;SDS011;30950;53.086;21.576;2023-03-15T13:08:43;9.90;;;3.90;;
45206;SDS011;30950;53.086;21.576;2023-03-15T13:11:32;8.05;;;3.63;;
45206;SDS011;30950;53.086;21.576;2023-03-15T13:17:12;11.30;;;4.18;;
45206;SDS011;30950;53.086;21.576;2023-03-15T13:19:48;9.88;;;3.47;;
45206;SDS011;30950;53.086;21.576;2023-03-15T13:22:33;11.75;;;4.18;;
45206;SDS011;30950;53.086;21.576;2023-03-15T13:25:32;11.52;;;4.35;;
45206;SDS011;30950;53.086;21.576;2023-03-15T13:28:20;13.43;;;3.83;;
45206;SDS011;30950;53.086;21.576;2023-03-15T13:30:51;10.32;;;3.65;;
45206;SDS011;30950;53.086;21.576;2023-03-15T13:33:27;10.68;;;3.13;;
45206;SDS011;30950;53.086;21.576;2023-03-15T13:38:49;8.35;;;3.50;;
45206;SDS011;30950;53.086;21.576;2023-03-15T13:43:55;9.35;;;4.10;;
45206;SDS011;30950;53.086;21.576;2023-03-15T13:46:28;9.43;;;3.72;;
45206;SDS011;30950;53.086;21.576;2023-03-15T13:48:56;9.63;;;3.70;;
45206;SDS011;30950;53.086;21.576;2023-03-15T13:51:29;11.68;;;4.10;;
45206;SDS011;30950;53.086;21.576;2023-03-15T13:56:28;12.73;;;4.78;;
45206;SDS011;30950;53.086;21.576;2023-03-15T13:59:14;7.93;;;3.07;;
45206;SDS011;30950;53.086;21.576;2023-03-15T14:01:42;8.23;;;3.92;;
45206;SDS011;30950;53.086;21.576;2023-03-15T14:04:16;11.38;;;4.18;;
45206;SDS011;30950;53.086;21.576;2023-03-15T14:06:44;11.85;;;3.97;;
45206;SDS011;30950;53.086;21.576;2023-03-15T14:09:19;12.05;;;4.15;;
45206;SDS011;30950;53.086;21.576;2023-03-15T14:12:01;8.63;;;3.90;;
45206;SDS011;30950;53.086;21.576;2023-03-15T14:14:48;11.90;;;3.78;;
45206;SDS011;30950;53.086;21.576;2023-03-15T14:17:19;9.32;;;4.00;;
45206;SDS011;30950;53.086;21.576;2023-03-15T14:19:51;8.45;;;3.90;;
45206;SDS011;30950;53.086;21.576;2023-03-15T14:22:21;7.88;;;3.75;;
45206;SDS011;30950;53.086;21.576;2023-03-15T14:24:49;11.73;;;3.90;;
45206;SDS011;30950;53.086;21.576;2023-03-15T14:27:25;7.68;;;3.38;;
45206;SDS011;30950;53.086;21.576;2023-03-15T14:29:57;9.15;;;3.63;;
45206;SDS011;30950;53.086;21.576;2023-03-15T14:38:05;8.43;;;4.13;;
45206;SDS011;30950;53.086;21.576;2023-03-15T14:40:41;11.00;;;3.90;;
45206;SDS011;30950;53.086;21.576;2023-03-15T14:43:08;8.85;;;4.40;;
45206;SDS011;30950;53.086;21.576;2023-03-15T14:45:37;9.88;;;4.88;;
45206;SDS011;30950;53.086;21.576;2023-03-15T14:48:09;10.63;;;4.85;;
45206;SDS011;30950;53.086;21.576;2023-03-15T14:50:41;7.28;;;3.55;;
45206;SDS011;30950;53.086;21.576;2023-03-15T14:53:19;8.13;;;3.42;;
45206;SDS011;30950;53.086;21.576;2023-03-15T14:55:48;7.90;;;3.78;;
45206;SDS011;30950;53.086;21.576;2023-03-15T14:58:17;7.32;;;3.95;;
45206;SDS011;30950;53.086;21.576;2023-03-15T15:00:52;8.65;;;4.00;;
45206;SDS011;30950;53.086;21.576;2023-03-15T15:05:59;11.43;;;5.07;;
45206;SDS011;30950;53.086;21.576;2023-03-15T15:08:28;13.95;;;6.25;;
45206;SDS011;30950;53.086;21.576;2023-03-15T15:10:57;10.50;;;4.38;;
45206;SDS011;30950;53.086;21.576;2023-03-15T15:13:26;7.65;;;3.20;;
45206;SDS011;30950;53.086;21.576;2023-03-15T15:15:55;7.57;;;3.25;;
45206;SDS011;30950;53.086;21.576;2023-03-15T15:18:23;11.27;;;4.78;;
45206;SDS011;30950;53.086;21.576;2023-03-15T15:20:53;7.10;;;3.10;;
45206;SDS011;30950;53.086;21.576;2023-03-15T15:23:26;6.85;;;3.20;;
45206;SDS011;30950;53.086;21.576;2023-03-15T15:25:59;10.63;;;3.88;;
45206;SDS011;30950;53.086;21.576;2023-03-15T15:28:29;7.65;;;3.75;;
45206;SDS011;30950;53.086;21.576;2023-03-15T15:31:03;5.90;;;2.88;;
45206;SDS011;30950;53.086;21.576;2023-03-15T15:33:33;7.00;;;2.63;;
45206;SDS011;30950;53.086;21.576;2023-03-15T15:36:01;9.20;;;3.50;;
45206;SDS011;30950;53.086;21.576;2023-03-15T15:38:30;7.20;;;3.00;;
45206;SDS011;30950;53.086;21.576;2023-03-15T15:41:14;7.60;;;3.45;;
45206;SDS011;30950;53.086;21.576;2023-03-15T15:43:47;9.95;;;3.17;;
45206;SDS011;30950;53.086;21.576;2023-03-15T15:46:15;8.70;;;3.65;;
45206;SDS011;30950;53.086;21.576;2023-03-15T15:48:42;9.82;;;4.30;;
45206;SDS011;30950;53.086;21.576;2023-03-15T15:53:53;10.93;;;3.85;;
45206;SDS011;30950;53.086;21.576;2023-03-15T15:56:23;12.30;;;4.47;;
45206;SDS011;30950;53.086;21.576;2023-03-15T15:59:05;11.75;;;5.10;;
45206;SDS011;30950;53.086;21.576;2023-03-15T16:01:39;10.63;;;4.30;;
45206;SDS011;30950;53.086;21.576;2023-03-15T16:04:25;11.95;;;4.82;;
45206;SDS011;30950;53.086;21.576;2023-03-15T16:06:53;18.75;;;9.10;;
45206;SDS011;30950;53.086;21.576;2023-03-15T16:09:29;9.63;;;4.23;;
45206;SDS011;30950;53.086;21.576;2023-03-15T16:12:01;9.82;;;4.50;;
45206;SDS011;30950;53.086;21.576;2023-03-15T16:14:35;11.32;;;6.13;;
45206;SDS011;30950;53.086;21.576;2023-03-15T16:17:04;14.18;;;5.50;;
45206;SDS011;30950;53.086;21.576;2023-03-15T16:19:36;9.52;;;4.40;;
45206;SDS011;30950;53.086;21.576;2023-03-15T16:22:03;25.27;;;14.90;;
45206;SDS011;30950;53.086;21.576;2023-03-15T16:24:32;20.38;;;10.63;;
45206;SDS011;30950;53.086;21.576;2023-03-15T16:27:03;22.80;;;11.93;;
45206;SDS011;30950;53.086;21.576;2023-03-15T16:29:42;13.57;;;7.18;;
45206;SDS011;30950;53.086;21.576;2023-03-15T16:32:13;11.02;;;6.30;;
45206;SDS011;30950;53.086;21.576;2023-03-15T16:35:08;12.95;;;6.10;;
45206;SDS011;30950;53.086;21.576;2023-03-15T16:37:41;22.30;;;14.30;;
45206;SDS011;30950;53.086;21.576;2023-03-15T16:40:15;36.03;;;16.20;;
45206;SDS011;30950;53.086;21.576;2023-03-15T16:42:47;33.80;;;15.73;;
45206;SDS011;30950;53.086;21.576;2023-03-15T16:45:15;42.75;;;20.05;;
45206;SDS011;30950;53.086;21.576;2023-03-15T16:47:43;61.22;;;26.05;;